Time;durP1;ratioP1;P1;durP2;ratioP2;P2;SDS_P1;SDS_P2;PMS_P1;PMS_P2;Temp;Humidity;BMP_temperature;BMP_pressure;BME280_temperature;BME280_humidity;BME280_pressure;Samples;Min_cycle;Max_cycle;Signal;HPM_P1;HPM_P2
2022/03/31 00:00:46;;;;;;;17.60;6.20;;;14.40;99.90;;;;;;5033228;28;20064;-76
2022/03/31 00:03:19;;;;;;;17.33;6.05;;;14.40;99.90;;;;;;5033338;28;20052;-77
2022/03/31 00:05:50;;;;;;;21.05;6.38;;;14.50;99.90;;;;;;5033269;28;20037;-77
2022/03/31 00:08:20;;;;;;;12.90;5.90;;;14.50;99.90;;;;;;5033159;28;20048;-78
2022/03/31 00:10:52;;;;;;;30.67;8.17;;;14.50;99.90;;;;;;5018140;28;20057;-79
2022/03/31 00:13:22;;;;;;;16.25;6.38;;;14.50;99.90;;;;;;5012930;28;20307;-78
2022/03/31 00:15:50;;;;;;;18.20;6.88;;;14.40;99.90;;;;;;5013190;28;20064;-79
2022/03/31 00:18:18;;;;;;;15.93;7.40;;;14.50;99.90;;;;;;4995737;28;20512;-76
2022/03/31 00:20:46;;;;;;;21.65;6.28;;;14.50;99.90;;;;;;5012943;28;20053;-78
2022/03/31 00:23:13;;;;;;;12.43;6.28;;;14.40;99.90;;;;;;5013186;28;20502;-78
2022/03/31 00:25:42;;;;;;;20.42;7.47;;;14.40;99.90;;;;;;5012748;28;20494;-76
2022/03/31 00:28:09;;;;;;;16.95;7.15;;;14.40;99.90;;;;;;5012797;28;20049;-77
2022/03/31 00:30:44;;;;;;;14.90;6.75;;;14.40;99.90;;;;;;5013311;28;20516;-78
2022/03/31 00:33:12;;;;;;;16.50;6.78;;;14.40;99.90;;;;;;4995658;28;20089;-79
2022/03/31 00:35:39;;;;;;;14.95;6.22;;;14.30;99.90;;;;;;5012808;28;20580;-79
2022/03/31 00:38:07;;;;;;;17.63;6.53;;;14.30;99.90;;;;;;5029437;28;20038;-77
2022/03/31 00:40:35;;;;;;;15.32;6.40;;;14.30;99.90;;;;;;5032195;28;20041;-77
2022/03/31 00:43:02;;;;;;;14.57;6.80;;;14.20;99.90;;;;;;5031757;28;20045;-78
2022/03/31 00:45:46;;;;;;;15.98;7.05;;;14.20;99.90;;;;;;5031961;28;20051;-78
2022/03/31 00:48:16;;;;;;;11.88;5.90;;;14.10;99.90;;;;;;5031518;28;20732;-77
2022/03/31 00:50:43;;;;;;;16.38;7.57;;;14.20;99.90;;;;;;5031756;28;20068;-78
2022/03/31 00:53:11;;;;;;;12.35;6.80;;;14.20;99.90;;;;;;5031456;28;20048;-76
2022/03/31 00:56:00;;;;;;;14.85;8.07;;;14.20;99.90;;;;;;5032202;28;20046;-76
2022/03/31 00:58:36;;;;;;;14.10;6.72;;;14.20;99.90;;;;;;5032576;28;20042;-77
2022/03/31 01:01:03;;;;;;;15.05;7.38;;;14.10;99.90;;;;;;5032294;28;20041;-79
2022/03/31 01:03:31;;;;;;;16.10;7.47;;;14.10;99.90;;;;;;5032436;28;20055;-77
2022/03/31 01:05:58;;;;;;;16.67;7.10;;;14.10;99.90;;;;;;5032171;28;20041;-80
2022/03/31 01:08:26;;;;;;;13.70;6.53;;;14.20;99.90;;;;;;5032409;28;20056;-80
2022/03/31 01:10:53;;;;;;;17.77;7.03;;;14.20;99.90;;;;;;5032323;28;20496;-78
2022/03/31 01:13:21;;;;;;;16.10;6.85;;;14.20;99.90;;;;;;5031977;28;20037;-78
2022/03/31 01:15:48;;;;;;;14.05;6.28;;;14.20;99.90;;;;;;5032324;28;20052;-79
2022/03/31 01:18:16;;;;;;;15.05;7.43;;;14.20;99.90;;;;;;5031911;28;20390;-78
2022/03/31 01:20:43;;;;;;;19.30;7.35;;;14.20;99.90;;;;;;5032049;28;20055;-79
2022/03/31 01:23:12;;;;;;;18.67;7.47;;;14.20;99.90;;;;;;5031877;28;20046;-80
2022/03/31 01:25:40;;;;;;;16.13;7.55;;;14.10;99.90;;;;;;5031890;28;20120;-78
2022/03/31 01:28:07;;;;;;;20.33;7.18;;;14.10;99.90;;;;;;5031881;28;20129;-81
2022/03/31 01:30:35;;;;;;;14.20;7.13;;;14.10;99.90;;;;;;5032161;28;20041;-80
2022/03/31 01:33:02;;;;;;;17.85;6.82;;;14.00;99.90;;;;;;5032038;28;20496;-80
2022/03/31 01:35:29;;;;;;;15.48;6.85;;;14.00;99.90;;;;;;5031947;28;20485;-81
2022/03/31 01:37:57;;;;;;;15.95;6.65;;;14.10;99.90;;;;;;5031775;28;20392;-79
2022/03/31 01:40:24;;;;;;;13.43;6.90;;;14.00;99.90;;;;;;5031771;28;20056;-80
2022/03/31 01:42:51;;;;;;;16.77;7.47;;;13.90;99.90;;;;;;5031508;28;20046;-80
2022/03/31 01:45:18;;;;;;;21.13;8.10;;;13.90;99.90;;;;;;5031997;28;20037;-77
2022/03/31 01:47:46;;;;;;;14.95;6.70;;;13.90;99.90;;;;;;5031738;28;20038;-78
2022/03/31 01:50:15;;;;;;;13.73;7.30;;;14.00;99.90;;;;;;5031329;28;20045;-76
2022/03/31 01:52:42;;;;;;;15.82;6.80;;;13.90;99.90;;;;;;5031285;28;20374;-78
2022/03/31 01:55:09;;;;;;;14.40;7.32;;;13.90;99.90;;;;;;5031715;28;20046;-80
2022/03/31 01:57:37;;;;;;;16.77;7.50;;;13.80;99.90;;;;;;5031303;28;20038;-77
2022/03/31 02:00:06;;;;;;;13.32;6.47;;;13.80;99.90;;;;;;5031798;28;20041;-80
2022/03/31 02:02:34;;;;;;;25.00;7.30;;;13.80;99.90;;;;;;4997532;28;20153;-78
2022/03/31 02:05:01;;;;;;;17.88;6.90;;;13.90;99.90;;;;;;5031907;28;20061;-76
2022/03/31 02:07:29;;;;;;;13.85;6.90;;;13.90;99.90;;;;;;5035583;28;20045;-75
2022/03/31 02:09:56;;;;;;;11.70;6.95;;;14.00;99.90;;;;;;5035688;28;20044;-78
2022/03/31 02:12:23;;;;;;;18.33;8.45;;;14.00;99.90;;;;;;5035137;28;20041;-78
2022/03/31 02:14:51;;;;;;;13.38;7.10;;;14.00;99.90;;;;;;5018434;28;20392;-76
2022/03/31 02:17:19;;;;;;;15.40;6.80;;;13.80;99.90;;;;;;5035357;28;20044;-79
2022/03/31 02:19:46;;;;;;;22.23;7.68;;;13.90;99.90;;;;;;5035071;28;20118;-79
2022/03/31 02:22:13;;;;;;;17.42;7.40;;;13.90;99.90;;;;;;5035168;28;20069;-80
2022/03/31 02:24:40;;;;;;;14.75;7.25;;;13.80;99.90;;;;;;5035583;28;20042;-80
2022/03/31 02:27:08;;;;;;;20.98;8.25;;;13.90;99.90;;;;;;5001550;28;20055;-77
2022/03/31 02:29:35;;;;;;;17.50;7.88;;;13.90;99.90;;;;;;5035324;28;20120;-78
2022/03/31 02:32:04;;;;;;;17.60;7.72;;;13.90;99.90;;;;;;5017379;28;20049;-79
2022/03/31 02:34:31;;;;;;;14.30;6.85;;;13.90;99.90;;;;;;5035289;28;20045;-77
2022/03/31 02:36:58;;;;;;;17.35;7.03;;;13.90;99.90;;;;;;5035017;28;20124;-78
2022/03/31 02:39:29;;;;;;;14.20;7.50;;;13.90;99.90;;;;;;5035069;28;20038;-79
2022/03/31 02:42:03;;;;;;;14.18;7.63;;;14.00;99.90;;;;;;5034353;28;20045;-76
2022/03/31 02:44:30;;;;;;;15.90;8.02;;;14.00;99.90;;;;;;5034973;28;20545;-77
2022/03/31 02:46:58;;;;;;;13.95;7.15;;;13.90;99.90;;;;;;5034985;28;20358;-77
2022/03/31 02:49:25;;;;;;;15.63;7.07;;;13.80;99.90;;;;;;5034765;28;20048;-78
2022/03/31 02:51:52;;;;;;;14.38;6.97;;;13.90;99.90;;;;;;5034957;28;20045;-75
2022/03/31 02:57:05;;;;;;;17.63;6.95;;;13.90;99.90;;;;;;5034480;28;20095;-77
2022/03/31 02:59:33;;;;;;;13.20;6.65;;;14.00;99.90;;;;;;5034667;28;20045;-78
2022/03/31 03:02:00;;;;;;;14.73;6.90;;;13.90;99.90;;;;;;5034322;28;20049;-79
2022/03/31 03:04:28;;;;;;;14.55;6.80;;;14.00;99.90;;;;;;5017026;28;20049;-79
2022/03/31 03:06:55;;;;;;;17.35;7.00;;;14.00;99.90;;;;;;5034397;28;20061;-78
2022/03/31 03:09:22;;;;;;;13.48;6.82;;;13.90;99.90;;;;;;5016619;28;20524;-78
2022/03/31 03:11:50;;;;;;;13.27;6.80;;;14.00;99.90;;;;;;5034246;28;20037;-78
2022/03/31 03:14:17;;;;;;;17.23;7.85;;;14.00;99.90;;;;;;5016822;28;20116;-78
2022/03/31 03:16:45;;;;;;;15.25;7.22;;;13.90;99.90;;;;;;5016617;28;20092;-80
2022/03/31 03:19:12;;;;;;;15.40;7.30;;;13.90;99.90;;;;;;5016510;28;20089;-78
2022/03/31 03:21:40;;;;;;;15.57;7.20;;;13.80;99.90;;;;;;5034131;28;20073;-80
2022/03/31 03:24:08;;;;;;;14.65;7.05;;;13.80;99.90;;;;;;5034171;28;20409;-82
2022/03/31 03:26:35;;;;;;;19.20;7.60;;;13.80;99.90;;;;;;5034042;28;20096;-75
2022/03/31 03:29:02;;;;;;;12.18;7.70;;;13.80;99.90;;;;;;5033828;28;20500;-78
2022/03/31 03:31:30;;;;;;;12.43;6.47;;;13.80;99.90;;;;;;5033875;28;20378;-80
2022/03/31 03:33:57;;;;;;;12.38;6.95;;;13.80;99.90;;;;;;5033963;28;20037;-78
2022/03/31 03:36:27;;;;;;;18.08;7.65;;;13.80;99.90;;;;;;5016108;28;20038;-80
2022/03/31 03:38:54;;;;;;;13.40;6.85;;;13.80;99.90;;;;;;5016260;28;20069;-79
2022/03/31 03:41:21;;;;;;;13.57;7.07;;;13.70;99.90;;;;;;5033743;28;20071;-79
2022/03/31 03:43:48;;;;;;;12.77;7.25;;;13.80;99.90;;;;;;5033679;28;20041;-79
2022/03/31 03:46:16;;;;;;;13.90;7.18;;;13.90;99.90;;;;;;5033644;28;20045;-77
2022/03/31 03:48:43;;;;;;;15.50;7.00;;;13.90;99.90;;;;;;5033853;28;20045;-80
2022/03/31 03:51:10;;;;;;;14.93;8.18;;;13.90;99.90;;;;;;5015911;28;20588;-78
2022/03/31 03:53:37;;;;;;;21.60;6.75;;;13.90;99.90;;;;;;5033549;28;20064;-80
2022/03/31 03:56:05;;;;;;;16.50;7.13;;;13.80;99.90;;;;;;5033753;28;20063;-78
2022/03/31 03:58:32;;;;;;;20.75;7.45;;;13.90;99.90;;;;;;5033255;28;20060;-78
2022/03/31 04:01:00;;;;;;;18.40;7.53;;;13.80;99.90;;;;;;5015734;28;20049;-78
2022/03/31 04:03:27;;;;;;;20.30;7.68;;;13.90;99.90;;;;;;5033164;28;20041;-77
2022/03/31 04:05:55;;;;;;;13.75;8.07;;;14.00;99.90;;;;;;5033195;28;20481;-76
2022/03/31 04:08:23;;;;;;;18.00;7.97;;;13.90;99.90;;;;;;5032935;28;20042;-76
2022/03/31 04:10:51;;;;;;;17.38;9.10;;;13.90;99.90;;;;;;5033268;28;20072;-74
2022/03/31 04:13:18;;;;;;;14.82;7.68;;;14.00;99.90;;;;;;5033052;28;20546;-74
2022/03/31 04:15:46;;;;;;;20.83;8.13;;;14.00;99.90;;;;;;5033189;28;20053;-76
2022/03/31 04:18:14;;;;;;;18.73;8.13;;;14.00;99.90;;;;;;5032793;28;20037;-75
2022/03/31 04:20:41;;;;;;;19.15;7.78;;;14.00;99.90;;;;;;5032733;28;20616;-77
2022/03/31 04:23:08;;;;;;;18.75;8.57;;;13.90;99.90;;;;;;5033008;28;20053;-77
2022/03/31 04:25:35;;;;;;;16.67;8.07;;;13.90;99.90;;;;;;5032789;28;20039;-79
2022/03/31 04:28:04;;;;;;;14.57;8.00;;;13.90;99.90;;;;;;5032061;28;20045;-77
2022/03/31 04:30:32;;;;;;;13.20;7.88;;;13.90;99.90;;;;;;5032877;28;20064;-77
2022/03/31 04:32:59;;;;;;;18.40;8.18;;;13.90;99.90;;;;;;5032748;28;20042;-77
2022/03/31 04:35:26;;;;;;;13.57;8.13;;;13.80;99.90;;;;;;5032435;28;20045;-75
2022/03/31 04:37:53;;;;;;;20.00;8.27;;;13.80;99.90;;;;;;5032417;28;20039;-76
2022/03/31 04:40:21;;;;;;;13.63;8.43;;;13.80;99.90;;;;;;5032652;28;20048;-79
2022/03/31 04:42:48;;;;;;;14.88;8.55;;;13.80;99.90;;;;;;5032157;28;20484;-77
2022/03/31 04:45:15;;;;;;;22.13;8.68;;;13.90;99.90;;;;;;5032126;28;20045;-79
2022/03/31 04:47:42;;;;;;;19.25;8.30;;;13.80;99.90;;;;;;5032766;28;20408;-79
2022/03/31 04:50:14;;;;;;;22.90;8.05;;;13.80;99.90;;;;;;5032668;28;20094;-76
2022/03/31 04:52:42;;;;;;;22.05;7.50;;;13.80;99.90;;;;;;5032417;28;20523;-76
2022/03/31 04:55:11;;;;;;;16.70;7.93;;;13.80;99.90;;;;;;5014469;28;20046;-76
2022/03/31 04:57:38;;;;;;;15.30;7.65;;;13.70;99.90;;;;;;5031899;28;20120;-79
2022/03/31 05:00:06;;;;;;;17.08;8.75;;;13.60;99.90;;;;;;5032047;28;20045;-78
2022/03/31 05:02:37;;;;;;;20.85;7.97;;;13.40;99.90;;;;;;5014852;28;20087;-79
2022/03/31 05:05:04;;;;;;;14.73;7.10;;;13.50;99.90;;;;;;5031668;28;20065;-78
2022/03/31 05:07:32;;;;;;;18.77;8.27;;;13.60;99.90;;;;;;5032104;28;20041;-78
2022/03/31 05:09:59;;;;;;;18.58;8.35;;;13.60;99.90;;;;;;5031849;28;20042;-76
2022/03/31 05:12:26;;;;;;;22.50;8.55;;;13.70;99.90;;;;;;5031945;28;20481;-75
2022/03/31 05:14:53;;;;;;;20.30;8.35;;;13.70;99.90;;;;;;5031558;28;20041;-78
2022/03/31 05:17:21;;;;;;;23.60;8.65;;;13.60;99.90;;;;;;5031968;28;20381;-80
2022/03/31 05:19:48;;;;;;;20.92;8.20;;;13.60;99.90;;;;;;5031632;28;20129;-78
2022/03/31 05:22:15;;;;;;;15.07;8.77;;;13.60;99.90;;;;;;5031350;28;20103;-79
2022/03/31 05:24:42;;;;;;;16.73;8.25;;;13.70;99.90;;;;;;5031080;28;20067;-78
2022/03/31 05:27:10;;;;;;;17.15;7.60;;;13.70;99.90;;;;;;5030547;28;20065;-78
2022/03/31 05:29:37;;;;;;;19.92;8.57;;;13.80;99.90;;;;;;5031393;28;20041;-78
2022/03/31 05:32:05;;;;;;;17.10;8.35;;;13.60;99.90;;;;;;5031737;28;20462;-78
2022/03/31 05:34:35;;;;;;;20.05;7.75;;;13.60;99.90;;;;;;5031327;28;20456;-79
2022/03/31 05:37:03;;;;;;;20.40;8.73;;;13.50;99.90;;;;;;5031073;28;20041;-79
2022/03/31 05:39:32;;;;;;;20.08;9.15;;;13.50;99.90;;;;;;5012874;28;20049;-79
2022/03/31 05:42:00;;;;;;;22.75;9.48;;;13.50;99.90;;;;;;5031149;28;20526;-79
2022/03/31 05:44:30;;;;;;;21.02;9.27;;;13.40;99.90;;;;;;5031626;28;20056;-80
2022/03/31 05:46:58;;;;;;;18.33;8.45;;;13.50;99.90;;;;;;5031239;28;20056;-79
2022/03/31 05:49:27;;;;;;;19.98;9.50;;;13.40;99.90;;;;;;5031390;28;20116;-78
2022/03/31 05:51:54;;;;;;;20.90;10.05;;;13.40;99.90;;;;;;5031193;28;20049;-79
2022/03/31 05:54:21;;;;;;;16.98;9.77;;;13.40;99.90;;;;;;5031875;28;20770;-77
2022/03/31 05:56:48;;;;;;;18.23;9.80;;;13.30;99.90;;;;;;5031277;28;20124;-79
2022/03/31 05:59:23;;;;;;;18.05;9.55;;;13.30;99.90;;;;;;5031327;28;20053;-79
2022/03/31 06:01:53;;;;;;;22.08;10.25;;;13.20;99.90;;;;;;5030657;28;20396;-77
2022/03/31 06:04:21;;;;;;;19.40;10.05;;;13.40;99.90;;;;;;5031521;28;20064;-76
2022/03/31 06:06:48;;;;;;;20.33;10.88;;;13.70;99.90;;;;;;5030994;28;20461;-78
2022/03/31 06:09:16;;;;;;;21.20;10.82;;;13.80;99.90;;;;;;5031236;28;20540;-79
2022/03/31 06:11:44;;;;;;;24.35;11.63;;;13.80;99.90;;;;;;5003340;28;20569;-78
2022/03/31 06:14:12;;;;;;;19.27;11.23;;;14.00;99.90;;;;;;5011315;28;20441;-82
2022/03/31 06:16:40;;;;;;;23.45;11.98;;;14.00;99.90;;;;;;5011105;28;20397;-76
2022/03/31 06:19:10;;;;;;;36.97;22.38;;;13.70;99.90;;;;;;5011578;28;20141;-75
2022/03/31 06:21:38;;;;;;;24.88;14.38;;;13.70;99.90;;;;;;5011319;28;20064;-77
2022/03/31 06:24:06;;;;;;;27.75;13.65;;;13.50;99.90;;;;;;5011337;28;20125;-81
2022/03/31 06:26:35;;;;;;;34.35;19.40;;;13.50;99.90;;;;;;5010082;28;20245;-75
2022/03/31 06:29:05;;;;;;;35.15;15.55;;;13.40;99.90;;;;;;5019973;28;20052;-75
2022/03/31 06:31:34;;;;;;;153.88;84.65;;;13.50;99.90;;;;;;5011055;28;20046;-76
2022/03/31 06:34:05;;;;;;;80.32;44.05;;;13.90;99.90;;;;;;5011399;28;20038;-77
2022/03/31 06:36:33;;;;;;;34.95;19.10;;;14.10;99.90;;;;;;5013437;28;20401;-76
2022/03/31 06:39:00;;;;;;;28.15;14.80;;;14.10;99.90;;;;;;5003386;28;20398;-77
2022/03/31 06:41:27;;;;;;;30.58;13.65;;;14.00;99.90;;;;;;5016830;28;20038;-79
2022/03/31 06:43:57;;;;;;;26.58;12.77;;;13.70;99.90;;;;;;5014481;28;20042;-79
2022/03/31 06:46:25;;;;;;;21.65;12.60;;;13.80;99.90;;;;;;5015492;28;20033;-78
2022/03/31 06:49:21;;;;;;;26.50;13.10;;;13.80;99.90;;;;;;5014807;28;20054;-77
2022/03/31 06:51:56;;;;;;;23.88;12.40;;;13.90;99.90;;;;;;5008648;28;20092;-76
2022/03/31 06:54:24;;;;;;;24.58;12.82;;;14.00;99.90;;;;;;5023077;28;20386;-78
2022/03/31 06:56:51;;;;;;;23.40;12.57;;;13.50;99.90;;;;;;5023836;28;20096;-78
2022/03/31 06:59:21;;;;;;;20.23;12.88;;;13.30;99.90;;;;;;5013147;28;20034;-76
2022/03/31 07:01:49;;;;;;;27.88;13.20;;;13.50;99.90;;;;;;5002902;28;20041;-77
2022/03/31 07:04:17;;;;;;;19.25;11.88;;;13.60;99.90;;;;;;5014170;28;20034;-79
2022/03/31 07:06:44;;;;;;;23.08;12.40;;;13.40;99.90;;;;;;5014231;28;20049;-77
2022/03/31 07:09:11;;;;;;;24.13;13.45;;;13.30;99.90;;;;;;5014089;28;20066;-77
2022/03/31 07:11:38;;;;;;;23.67;12.75;;;13.60;99.90;;;;;;5012110;28;20030;-77
2022/03/31 07:14:07;;;;;;;27.83;12.65;;;13.70;99.90;;;;;;5007900;28;20433;-76
2022/03/31 07:16:34;;;;;;;30.00;12.90;;;13.90;99.90;;;;;;5016774;28;20401;-77
2022/03/31 07:19:03;;;;;;;25.35;14.35;;;13.80;99.90;;;;;;5005381;28;20036;-75
2022/03/31 07:21:32;;;;;;;20.52;12.40;;;13.40;99.90;;;;;;5021735;28;20510;-75
2022/03/31 07:24:43;;;;;;;25.98;13.32;;;13.60;99.90;;;;;;5022975;28;20046;-81
2022/03/31 07:27:24;;;;;;;24.77;12.25;;;13.80;99.90;;;;;;5015914;28;20509;-75
2022/03/31 07:29:52;;;;;;;24.40;12.93;;;13.90;99.90;;;;;;5021707;28;20065;-76
2022/03/31 07:32:19;;;;;;;27.50;13.02;;;13.80;99.90;;;;;;5022286;28;20485;-76
2022/03/31 07:34:46;;;;;;;26.35;12.90;;;14.10;99.90;;;;;;5023728;28;20808;-76
2022/03/31 07:37:16;;;;;;;27.70;12.38;;;14.20;99.90;;;;;;5021942;28;20057;-77
2022/03/31 07:39:45;;;;;;;29.13;12.95;;;14.40;99.90;;;;;;5021554;28;20045;-78
2022/03/31 07:42:14;;;;;;;22.83;11.40;;;14.50;99.90;;;;;;5015470;28;20073;-77
2022/03/31 07:44:42;;;;;;;28.15;12.20;;;14.70;99.90;;;;;;5008749;28;20410;-78
2022/03/31 07:47:10;;;;;;;26.60;12.48;;;14.70;99.90;;;;;;5000037;28;20166;-78
2022/03/31 07:49:37;;;;;;;21.90;11.25;;;14.90;99.90;;;;;;5015138;28;20067;-78
2022/03/31 07:52:05;;;;;;;37.33;12.32;;;14.90;99.90;;;;;;5009505;28;20435;-78
2022/03/31 07:54:52;;;;;;;20.65;11.95;;;15.00;99.90;;;;;;5007144;28;20030;-77
2022/03/31 07:57:22;;;;;;;33.88;14.32;;;15.10;99.90;;;;;;5007074;28;20322;-75
2022/03/31 07:59:52;;;;;;;27.05;11.52;;;15.20;99.90;;;;;;5006508;28;20137;-78
2022/03/31 08:02:21;;;;;;;22.58;11.88;;;15.10;99.90;;;;;;5032569;28;20042;-78
2022/03/31 08:04:48;;;;;;;24.88;11.32;;;15.10;99.90;;;;;;5029100;28;20037;-78
2022/03/31 08:07:16;;;;;;;27.35;12.52;;;14.70;99.90;;;;;;5016723;28;20068;-77
2022/03/31 08:09:43;;;;;;;25.65;12.80;;;14.50;99.90;;;;;;5012039;28;20485;-79
2022/03/31 08:12:10;;;;;;;29.40;12.60;;;14.80;99.90;;;;;;5016700;28;20033;-77
2022/03/31 08:14:38;;;;;;;35.40;12.18;;;15.10;99.90;;;;;;5016306;28;20034;-77
2022/03/31 08:17:05;;;;;;;28.60;10.90;;;15.30;99.90;;;;;;5014801;28;20454;-78
2022/03/31 08:19:32;;;;;;;31.77;10.55;;;15.30;99.90;;;;;;5012546;28;20026;-77
2022/03/31 08:22:01;;;;;;;29.50;10.18;;;15.50;99.90;;;;;;5021970;28;20061;-80
2022/03/31 08:24:30;;;;;;;28.55;11.15;;;15.60;99.90;;;;;;5020659;28;20099;-78
2022/03/31 08:27:01;;;;;;;24.23;10.27;;;15.70;99.90;;;;;;5017573;28;20124;-78
2022/03/31 08:29:28;;;;;;;;;;;15.90;99.90;;;;;;5004597;28;20041;-79
2022/03/31 08:32:04;;;;;;;26.50;9.52;;;15.70;99.90;;;;;;5014838;28;19928;-77
2022/03/31 08:34:32;;;;;;;28.77;9.88;;;15.80;99.90;;;;;;5017048;28;20042;-79
2022/03/31 08:36:59;;;;;;;28.55;9.75;;;16.00;99.90;;;;;;4996979;28;20072;-78
2022/03/31 08:39:29;;;;;;;22.60;9.32;;;16.00;99.90;;;;;;5023468;28;20030;-78
2022/03/31 08:41:57;;;;;;;23.40;11.55;;;16.20;99.90;;;;;;5014208;28;20504;-79
2022/03/31 08:44:29;;;;;;;21.65;8.77;;;16.40;99.90;;;;;;4996734;28;20493;-78
2022/03/31 08:46:56;;;;;;;19.23;8.18;;;16.30;99.90;;;;;;5020892;28;20112;-81
2022/03/31 08:49:29;;;;;;;27.02;8.40;;;16.30;99.90;;;;;;5021181;28;20047;-77
2022/03/31 08:52:04;;;;;;;18.05;7.35;;;16.30;99.90;;;;;;5021192;28;20498;-78
2022/03/31 08:54:32;;;;;;;19.88;8.07;;;16.10;99.90;;;;;;5012554;28;20497;-79
2022/03/31 08:57:05;;;;;;;25.08;7.75;;;16.00;99.90;;;;;;5018271;28;20038;-78
2022/03/31 08:59:53;;;;;;;22.60;8.75;;;16.00;99.90;;;;;;4988073;28;20392;-76
2022/03/31 09:02:25;;;;;;;16.25;7.13;;;15.90;99.90;;;;;;5004598;28;20045;-78
2022/03/31 09:05:04;;;;;;;21.38;7.50;;;15.70;99.90;;;;;;5003198;28;20042;-79
2022/03/31 09:07:31;;;;;;;21.35;7.97;;;15.70;99.90;;;;;;5020658;28;20046;-76
2022/03/31 09:09:59;;;;;;;16.10;7.55;;;15.70;99.90;;;;;;5022185;28;20045;-78
2022/03/31 09:12:39;;;;;;;18.52;7.38;;;15.80;99.90;;;;;;5024453;28;20124;-79
2022/03/31 09:15:26;;;;;;;25.30;14.45;;;15.80;99.90;;;;;;5001775;28;20136;-78
2022/03/31 09:17:55;;;;;;;30.98;12.77;;;16.00;99.90;;;;;;5014517;28;20370;-76
2022/03/31 09:20:24;;;;;;;24.33;8.35;;;16.10;99.90;;;;;;5016760;28;20033;-75
2022/03/31 09:22:51;;;;;;;18.27;6.95;;;16.00;99.90;;;;;;5019502;28;20050;-74
2022/03/31 09:25:27;;;;;;;18.13;7.35;;;15.90;99.90;;;;;;5022055;28;20045;-73
2022/03/31 09:27:55;;;;;;;17.98;7.65;;;15.90;99.90;;;;;;5031331;28;20061;-75
2022/03/31 09:30:25;;;;;;;19.88;8.18;;;16.00;99.90;;;;;;5031181;28;20054;-74
2022/03/31 09:32:53;;;;;;;21.55;8.55;;;16.10;99.90;;;;;;5031410;28;20042;-72
2022/03/31 09:35:24;;;;;;;26.63;7.75;;;16.00;99.90;;;;;;5031086;28;20397;-72
2022/03/31 09:37:55;;;;;;;20.60;7.47;;;16.10;99.90;;;;;;5031178;28;20041;-72
2022/03/31 09:40:23;;;;;;;25.98;7.65;;;16.20;99.90;;;;;;5029883;28;20529;-72
2022/03/31 09:43:00;;;;;;;26.10;8.70;;;16.10;99.90;;;;;;5011284;28;20065;-74
2022/03/31 09:45:41;;;;;;;18.60;6.70;;;16.20;99.90;;;;;;5011845;28;20034;-75
2022/03/31 09:48:22;;;;;;;22.58;7.57;;;16.20;99.90;;;;;;5011471;28;20069;-72
2022/03/31 09:50:50;;;;;;;24.20;8.00;;;16.10;99.90;;;;;;5010116;28;20048;-73
2022/03/31 09:53:18;;;;;;;18.67;7.07;;;16.00;99.90;;;;;;5021870;28;20113;-73
2022/03/31 09:55:47;;;;;;;23.70;7.32;;;16.10;99.90;;;;;;5018669;28;20367;-77
2022/03/31 09:58:19;;;;;;;22.58;7.20;;;16.00;99.90;;;;;;5013505;28;20408;-74
2022/03/31 10:00:47;;;;;;;33.78;8.60;;;16.00;99.90;;;;;;5018117;28;20394;-74
2022/03/31 10:03:17;;;;;;;16.83;7.13;;;16.00;99.90;;;;;;5017999;28;20250;-73
2022/03/31 10:05:46;;;;;;;19.85;7.32;;;16.00;99.90;;;;;;5018694;28;20417;-73
2022/03/31 10:08:15;;;;;;;21.50;7.05;;;16.10;99.90;;;;;;5004423;28;20069;-74
2022/03/31 10:10:43;;;;;;;17.90;7.50;;;16.30;99.90;;;;;;5020354;28;20038;-81
2022/03/31 10:13:22;;;;;;;17.92;7.20;;;16.20;99.90;;;;;;5024780;28;20046;-77
2022/03/31 10:16:04;;;;;;;16.35;7.30;;;16.20;99.90;;;;;;5001538;28;20048;-75
2022/03/31 10:18:31;;;;;;;19.58;7.18;;;16.10;99.90;;;;;;5001814;28;20587;-73
2022/03/31 10:21:02;;;;;;;24.63;8.50;;;16.10;99.90;;;;;;5001264;28;20533;-74
2022/03/31 10:26:25;;;;;;;19.60;7.88;;;16.00;99.90;;;;;;5005235;28;20068;-74
2022/03/31 10:29:00;;;;;;;18.95;7.40;;;16.10;99.90;;;;;;5023517;28;20046;-75
2022/03/31 10:31:35;;;;;;;18.27;7.97;;;16.30;99.90;;;;;;5022626;28;20041;-73
2022/03/31 10:34:04;;;;;;;19.33;7.60;;;16.50;99.90;;;;;;5022777;28;20133;-75
2022/03/31 10:36:39;;;;;;;24.48;8.13;;;16.50;99.90;;;;;;5023534;28;20037;-81
2022/03/31 10:39:14;;;;;;;26.70;8.15;;;16.40;99.90;;;;;;5025516;28;20480;-78
2022/03/31 10:41:43;;;;;;;20.83;7.47;;;16.10;99.90;;;;;;5017171;28;20038;-78
2022/03/31 10:44:11;;;;;;;22.65;7.53;;;16.20;99.90;;;;;;5009085;28;20129;-76
2022/03/31 10:46:40;;;;;;;21.83;8.55;;;16.30;99.90;;;;;;5024746;28;20130;-74
2022/03/31 10:49:14;;;;;;;18.85;7.75;;;16.40;99.90;;;;;;5025752;28;20051;-76
2022/03/31 10:51:45;;;;;;;21.92;8.10;;;16.30;99.90;;;;;;5016391;28;20045;-76
2022/03/31 10:54:33;;;;;;;19.23;7.05;;;16.30;99.90;;;;;;5034040;28;20428;-75
2022/03/31 10:57:06;;;;;;;23.75;7.43;;;16.30;99.90;;;;;;5033314;28;20361;-74
2022/03/31 10:59:35;;;;;;;25.52;9.23;;;16.30;99.90;;;;;;5048896;28;20047;-81
2022/03/31 11:02:13;;;;;;;23.83;7.20;;;16.40;99.90;;;;;;5035533;28;20044;-77
2022/03/31 11:04:49;;;;;;;20.52;7.00;;;16.40;99.90;;;;;;5042328;28;20037;-82
2022/03/31 11:07:20;;;;;;;15.43;7.00;;;16.50;99.90;;;;;;4997507;28;20045;-80
2022/03/31 11:10:03;;;;;;;20.05;7.32;;;16.50;99.90;;;;;;5036547;28;20040;-78
2022/03/31 11:12:33;;;;;;;19.45;7.97;;;16.50;99.90;;;;;;5014347;28;20053;-81
2022/03/31 11:15:10;;;;;;;21.55;6.47;;;16.50;99.90;;;;;;5023289;28;20034;-78
2022/03/31 11:17:40;;;;;;;21.33;6.55;;;16.40;99.90;;;;;;5024209;28;20041;-76
2022/03/31 11:20:21;;;;;;;17.80;7.57;;;16.70;99.90;;;;;;5030941;28;20033;-81
2022/03/31 11:22:52;;;;;;;;;;;16.80;99.90;;;;;;5028910;28;20082;-77
2022/03/31 11:25:20;;;;;;;18.63;8.70;;;16.80;99.90;;;;;;5020443;28;20573;-74
2022/03/31 11:27:49;;;;;;;38.72;17.85;;;17.00;99.90;;;;;;5020321;28;20393;-74
2022/03/31 11:30:22;;;;;;;17.27;8.50;;;16.90;99.90;;;;;;5021633;28;20047;-79
2022/03/31 11:32:55;;;;;;;27.23;6.95;;;16.90;99.90;;;;;;5027536;28;20439;-77
2022/03/31 11:35:26;;;;;;;20.33;7.00;;;16.80;99.90;;;;;;4999289;28;20055;-78
2022/03/31 11:38:00;;;;;;;14.52;6.07;;;16.70;99.90;;;;;;5032916;28;20038;-79
2022/03/31 11:40:33;;;;;;;17.77;6.65;;;16.60;99.90;;;;;;5022131;28;20053;-76
2022/03/31 11:43:03;;;;;;;17.65;7.13;;;16.60;99.90;;;;;;5026716;28;20376;-76
2022/03/31 11:45:44;;;;;;;13.40;6.23;;;16.50;99.90;;;;;;5017297;28;20152;-78
2022/03/31 11:48:17;;;;;;;23.15;7.50;;;16.40;99.90;;;;;;5018959;28;20052;-76
2022/03/31 11:50:59;;;;;;;14.95;6.78;;;16.40;99.90;;;;;;5025134;28;20041;-76
2022/03/31 11:53:43;;;;;;;13.98;5.90;;;16.40;99.90;;;;;;5023751;28;20042;-76
2022/03/31 11:56:26;;;;;;;16.13;6.63;;;16.30;99.90;;;;;;5020710;28;20038;-76
2022/03/31 11:58:56;;;;;;;21.10;7.70;;;16.30;99.90;;;;;;5013939;28;20053;-79
2022/03/31 12:01:40;;;;;;;16.52;6.57;;;16.30;99.90;;;;;;5035120;28;20482;-77
2022/03/31 12:04:26;;;;;;;17.27;6.28;;;16.30;99.90;;;;;;5034578;28;20041;-77
2022/03/31 12:06:56;;;;;;;14.48;6.75;;;16.30;99.90;;;;;;5032837;28;20452;-75
2022/03/31 12:09:27;;;;;;;27.00;7.60;;;16.30;99.90;;;;;;5014703;28;20142;-79
2022/03/31 12:11:56;;;;;;;21.83;7.07;;;16.30;99.90;;;;;;5014018;28;20033;-77
2022/03/31 12:14:25;;;;;;;15.00;6.25;;;16.20;99.90;;;;;;5034726;28;20051;-78
2022/03/31 12:16:55;;;;;;;17.70;7.75;;;16.30;99.90;;;;;;5030085;28;20535;-77
2022/03/31 12:19:23;;;;;;;18.65;6.75;;;16.30;99.90;;;;;;5029285;28;20065;-75
2022/03/31 12:22:16;;;;;;;23.13;7.07;;;16.20;99.90;;;;;;5033367;28;20054;-83
2022/03/31 12:24:52;;;;;;;20.83;6.00;;;16.20;99.90;;;;;;5011604;28;20084;-78
2022/03/31 12:27:21;;;;;;;20.35;6.70;;;16.20;99.90;;;;;;5034378;28;20048;-80
2022/03/31 12:30:03;;;;;;;17.08;6.57;;;16.10;99.90;;;;;;5036500;28;20033;-76
2022/03/31 12:32:33;;;;;;;17.88;7.18;;;16.10;99.90;;;;;;5031844;28;20072;-77
2022/03/31 12:35:02;;;;;;;23.35;6.50;;;16.10;99.90;;;;;;5043096;28;20037;-75
2022/03/31 12:37:37;;;;;;;19.65;6.53;;;16.10;99.90;;;;;;5050104;28;20037;-75
2022/03/31 12:40:12;;;;;;;18.58;7.32;;;16.10;99.90;;;;;;5041852;28;20079;-77
2022/03/31 12:42:53;;;;;;;16.73;6.13;;;16.10;99.90;;;;;;5032131;28;20492;-74
2022/03/31 12:45:21;;;;;;;;;;;16.00;99.90;;;;;;5032643;28;20430;-74
2022/03/31 12:47:48;;;;;;;18.25;6.70;;;16.10;99.90;;;;;;5032290;28;20356;-75
2022/03/31 12:50:21;;;;;;;20.25;7.18;;;16.10;99.90;;;;;;5014202;28;20077;-76
2022/03/31 12:53:02;;;;;;;24.30;7.43;;;16.20;99.90;;;;;;5031737;28;20041;-75
2022/03/31 12:55:38;;;;;;;19.67;7.43;;;16.20;99.90;;;;;;5014135;28;20444;-74